Time;durP1;ratioP1;P1;durP2;ratioP2;P2;SDS_P1;SDS_P2;PMS_P1;PMS_P2;Temp;Humidity;BMP_temperature;BMP_pressure;BME280_temperature;BME280_humidity;BME280_pressure;Samples;Min_cycle;Max_cycle;Signal;HPM_P1;HPM_P2
2022/08/09 00:00:46;;;;;;;23.40;14.60;;;;;;;;;;105529;1302;25194;-28
2022/08/09 00:03:11;;;;;;;15.80;12.20;;;;;;;;;;105568;1302;25241;-28
2022/08/09 00:05:37;;;;;;;11.40;7.40;;;;;;;;;;105495;1303;25270;-24
2022/08/09 00:08:02;;;;;;;4.80;4.40;;;;;;;;;;105530;1296;25308;-24
2022/08/09 00:10:30;;;;;;;3.80;2.60;;;;;;;;;;105592;1295;25222;-24
2022/08/09 00:12:55;;;;;;;10.70;4.00;;;;;;;;;;105410;1299;25244;-28
2022/08/09 00:15:21;;;;;;;10.00;3.50;;;;;;;;;;105591;1296;26573;-28
2022/08/09 00:17:46;;;;;;;5.90;3.00;;;;;;;;;;105538;1296;25238;-24
2022/08/09 00:20:12;;;;;;;4.50;3.00;;;;;;;;;;105499;1296;25190;-24
2022/08/09 00:22:37;;;;;;;4.50;2.20;;;;;;;;;;105610;1301;22526;-25
2022/08/09 00:25:03;;;;;;;3.80;2.70;;;;;;;;;;105616;1296;25276;-25
2022/08/09 00:27:29;;;;;;;4.50;2.40;;;;;;;;;;105534;1301;25267;-28
2022/08/09 00:29:54;;;;;;;2.30;1.50;;;;;;;;;;105572;1296;25203;-30
2022/08/09 00:32:21;;;;;;;4.70;2.50;;;;;;;;;;105552;1297;25238;-28
2022/08/09 00:34:46;;;;;;;5.00;1.60;;;;;;;;;;105629;1296;25335;-28
2022/08/09 00:37:12;;;;;;;3.00;1.20;;;;;;;;;;105491;1303;25203;-24
2022/08/09 00:39:38;;;;;;;3.70;1.90;;;;;;;;;;105520;1303;25226;-24
2022/08/09 00:42:03;;;;;;;3.40;1.80;;;;;;;;;;105611;1303;25232;-28
2022/08/09 00:44:29;;;;;;;3.30;1.80;;;;;;;;;;105576;1280;26452;-23
2022/08/09 00:46:55;;;;;;;3.70;1.70;;;;;;;;;;105564;1296;25234;-26
2022/08/09 00:49:20;;;;;;;4.80;2.40;;;;;;;;;;105634;1296;25195;-28
2022/08/09 00:51:48;;;;;;;3.20;1.80;;;;;;;;;;105506;1296;25362;-24
2022/08/09 00:54:14;;;;;;;7.70;2.00;;;;;;;;;;104855;1303;1003058;-24
2022/08/09 00:56:40;;;;;;;3.90;2.10;;;;;;;;;;105610;1296;25419;-24
2022/08/09 00:59:06;;;;;;;4.70;2.40;;;;;;;;;;105645;1303;25407;-28
2022/08/09 01:01:34;;;;;;;3.10;2.30;;;;;;;;;;105608;1303;25244;-23
2022/08/09 01:04:03;;;;;;;7.50;2.60;;;;;;;;;;105622;1298;23801;-24
2022/08/09 01:06:29;;;;;;;4.40;2.80;;;;;;;;;;105541;1296;22535;-24
2022/08/09 01:08:58;;;;;;;1.90;1.50;;;;;;;;;;105517;1299;25231;-24
2022/08/09 01:11:27;;;;;;;5.70;2.50;;;;;;;;;;105564;1298;25215;-27
2022/08/09 01:13:55;;;;;;;3.30;2.30;;;;;;;;;;105619;1299;25419;-24
2022/08/09 01:16:21;;;;;;;4.50;2.80;;;;;;;;;;105530;1303;25244;-24
2022/08/09 01:18:46;;;;;;;3.30;2.00;;;;;;;;;;105576;1289;22520;-28
2022/08/09 01:21:12;;;;;;;5.20;2.30;;;;;;;;;;105487;1296;25244;-24
2022/08/09 01:23:39;;;;;;;2.50;1.70;;;;;;;;;;105554;1296;25299;-27
2022/08/09 01:26:08;;;;;;;1.00;0.90;;;;;;;;;;105654;1303;25193;-28
2022/08/09 01:28:34;;;;;;;3.30;1.90;;;;;;;;;;105625;1298;25280;-28
2022/08/09 01:30:59;;;;;;;11.40;2.70;;;;;;;;;;105502;1303;26557;-28
2022/08/09 01:33:26;;;;;;;2.40;1.30;;;;;;;;;;105661;1282;25235;-28
2022/08/09 01:35:54;;;;;;;1.60;1.10;;;;;;;;;;105656;1302;25215;-30
2022/08/09 01:38:22;;;;;;;3.50;1.40;;;;;;;;;;105523;1296;25205;-23
2022/08/09 01:40:49;;;;;;;5.00;2.60;;;;;;;;;;105578;1303;26481;-24
2022/08/09 01:43:14;;;;;;;4.10;1.70;;;;;;;;;;105545;1299;25255;-24
2022/08/09 01:45:40;;;;;;;3.60;2.00;;;;;;;;;;105690;1303;22530;-24
2022/08/09 01:48:06;;;;;;;3.00;1.70;;;;;;;;;;105564;1299;25231;-28
2022/08/09 01:50:31;;;;;;;4.00;2.40;;;;;;;;;;105531;1296;25178;-28
2022/08/09 01:52:56;;;;;;;3.90;2.50;;;;;;;;;;105588;1296;25197;-24
2022/08/09 01:55:23;;;;;;;3.00;2.30;;;;;;;;;;105604;1296;25343;-24
2022/08/09 01:57:50;;;;;;;2.70;2.30;;;;;;;;;;105548;1297;25189;-24
2022/08/09 02:00:16;;;;;;;2.70;2.00;;;;;;;;;;105618;1302;25309;-24
2022/08/09 02:02:43;;;;;;;2.10;1.70;;;;;;;;;;105616;1296;25286;-30
2022/08/09 02:05:09;;;;;;;2.20;1.50;;;;;;;;;;105622;1303;23980;-25
2022/08/09 02:07:35;;;;;;;2.40;1.40;;;;;;;;;;105639;1295;22524;-25
2022/08/09 02:10:02;;;;;;;4.20;2.50;;;;;;;;;;105611;1296;25316;-26
2022/08/09 02:12:29;;;;;;;6.50;2.10;;;;;;;;;;105659;1296;23671;-23
2022/08/09 02:14:54;;;;;;;4.60;3.20;;;;;;;;;;105555;1299;25215;-24
2022/08/09 02:17:21;;;;;;;4.20;2.40;;;;;;;;;;105564;1296;25197;-24
2022/08/09 02:19:48;;;;;;;5.30;2.40;;;;;;;;;;105715;1295;25178;-24
2022/08/09 02:22:16;;;;;;;3.50;1.90;;;;;;;;;;105612;1296;22519;-28
2022/08/09 02:24:42;;;;;;;4.20;2.40;;;;;;;;;;105555;1298;22514;-28
2022/08/09 02:27:08;;;;;;;7.20;3.00;;;;;;;;;;105585;1299;25194;-24
2022/08/09 02:29:36;;;;;;;2.80;2.30;;;;;;;;;;105486;1296;25366;-27
2022/08/09 02:32:03;;;;;;;8.30;2.90;;;;;;;;;;105557;1298;25351;-28
2022/08/09 02:34:29;;;;;;;6.00;2.30;;;;;;;;;;105612;1289;25196;-28
2022/08/09 02:36:56;;;;;;;4.00;1.90;;;;;;;;;;105567;1296;25365;-23
2022/08/09 02:39:22;;;;;;;2.20;1.10;;;;;;;;;;105557;1298;25196;-28
2022/08/09 02:41:48;;;;;;;6.10;2.60;;;;;;;;;;105325;1299;25196;-29
2022/08/09 02:44:14;;;;;;;2.70;1.90;;;;;;;;;;105616;1296;26614;-27
2022/08/09 02:46:40;;;;;;;3.00;1.50;;;;;;;;;;105604;1296;26456;-28
2022/08/09 02:49:07;;;;;;;3.30;1.70;;;;;;;;;;105565;1303;25237;-28
2022/08/09 02:51:34;;;;;;;3.60;2.60;;;;;;;;;;105577;1298;25196;-24
2022/08/09 02:53:59;;;;;;;3.30;2.20;;;;;;;;;;105518;1298;25197;-24
2022/08/09 02:56:25;;;;;;;7.60;1.50;;;;;;;;;;105609;1299;25204;-28
2022/08/09 02:58:50;;;;;;;2.70;1.50;;;;;;;;;;105648;1296;25309;-23
2022/08/09 03:01:16;;;;;;;2.30;1.80;;;;;;;;;;105620;1289;22560;-25
2022/08/09 03:03:41;;;;;;;4.50;2.10;;;;;;;;;;105556;1299;25194;-25
2022/08/09 03:06:07;;;;;;;3.30;1.80;;;;;;;;;;105522;1299;25202;-28
2022/08/09 03:08:32;;;;;;;2.50;1.90;;;;;;;;;;105462;1296;26474;-23
2022/08/09 03:10:58;;;;;;;5.50;2.20;;;;;;;;;;105559;1299;25271;-25
2022/08/09 03:13:25;;;;;;;3.40;2.40;;;;;;;;;;105605;1298;25234;-24
2022/08/09 03:15:51;;;;;;;2.90;1.30;;;;;;;;;;105605;1299;25196;-24
2022/08/09 03:18:17;;;;;;;2.00;1.40;;;;;;;;;;105536;1299;25355;-28
2022/08/09 03:20:42;;;;;;;3.20;1.50;;;;;;;;;;105596;1299;25301;-28
2022/08/09 03:23:08;;;;;;;2.40;1.90;;;;;;;;;;105557;1299;26486;-30
2022/08/09 03:25:33;;;;;;;2.90;1.80;;;;;;;;;;105604;1303;25244;-28
2022/08/09 03:27:59;;;;;;;2.50;1.60;;;;;;;;;;105616;1299;25853;-24
2022/08/09 03:30:25;;;;;;;1.80;1.60;;;;;;;;;;105563;1299;25238;-25
2022/08/09 03:32:51;;;;;;;2.90;1.80;;;;;;;;;;105586;1296;25264;-30
2022/08/09 03:35:16;;;;;;;3.10;2.70;;;;;;;;;;105542;1296;25245;-24
2022/08/09 03:37:42;;;;;;;5.30;2.80;;;;;;;;;;105538;1298;25378;-28
2022/08/09 03:40:08;;;;;;;2.70;2.00;;;;;;;;;;105523;1296;25365;-27
2022/08/09 03:42:33;;;;;;;2.00;1.50;;;;;;;;;;105514;1303;25286;-28
2022/08/09 03:44:58;;;;;;;3.50;2.50;;;;;;;;;;105501;1296;25193;-28
2022/08/09 03:47:24;;;;;;;3.80;2.60;;;;;;;;;;105546;1296;25220;-26
2022/08/09 03:49:50;;;;;;;2.10;1.30;;;;;;;;;;105569;1299;25335;-24
2022/08/09 03:52:15;;;;;;;6.70;2.00;;;;;;;;;;105620;1303;25386;-28
2022/08/09 03:54:41;;;;;;;4.20;1.90;;;;;;;;;;105573;1296;26470;-24
2022/08/09 03:57:07;;;;;;;5.10;2.30;;;;;;;;;;105566;1296;26537;-30
2022/08/09 03:59:33;;;;;;;6.00;2.70;;;;;;;;;;105612;1299;25205;-24
2022/08/09 04:01:58;;;;;;;3.60;2.60;;;;;;;;;;105563;1296;25209;-24
2022/08/09 04:04:24;;;;;;;3.70;2.20;;;;;;;;;;105519;1296;25234;-29
2022/08/09 04:06:50;;;;;;;3.20;2.30;;;;;;;;;;105637;1296;25269;-23
2022/08/09 04:09:15;;;;;;;1.90;1.60;;;;;;;;;;105570;1303;25385;-25
2022/08/09 04:11:44;;;;;;;6.00;1.70;;;;;;;;;;105593;1299;25410;-29
2022/08/09 04:14:11;;;;;;;3.20;2.80;;;;;;;;;;105576;1296;25228;-25
2022/08/09 04:16:37;;;;;;;9.20;2.00;;;;;;;;;;105614;1303;25226;-25
2022/08/09 04:19:03;;;;;;;3.10;2.10;;;;;;;;;;105545;1296;25261;-24
2022/08/09 04:21:29;;;;;;;2.60;1.90;;;;;;;;;;105538;1296;25250;-26
2022/08/09 04:23:54;;;;;;;7.30;3.40;;;;;;;;;;105492;1296;25229;-28
2022/08/09 04:26:19;;;;;;;5.70;2.30;;;;;;;;;;105591;1303;25204;-24
2022/08/09 04:28:45;;;;;;;5.20;2.40;;;;;;;;;;105616;1303;25197;-26
2022/08/09 04:31:10;;;;;;;3.20;2.00;;;;;;;;;;105358;1299;25278;-24
2022/08/09 04:33:36;;;;;;;2.80;1.70;;;;;;;;;;105378;1304;25279;-28
2022/08/09 04:36:02;;;;;;;3.10;2.00;;;;;;;;;;105580;1298;25203;-28
2022/08/09 04:38:28;;;;;;;8.20;3.20;;;;;;;;;;105605;1296;25250;-27
2022/08/09 04:40:53;;;;;;;10.30;4.10;;;;;;;;;;105557;1296;25363;-24
2022/08/09 04:43:19;;;;;;;12.00;5.20;;;;;;;;;;105528;1296;25337;-24
2022/08/09 04:45:45;;;;;;;4.50;2.80;;;;;;;;;;105391;1304;22633;-25
2022/08/09 04:48:11;;;;;;;7.80;2.50;;;;;;;;;;105570;1298;25234;-28
2022/08/09 04:50:37;;;;;;;3.70;2.70;;;;;;;;;;105564;1303;25237;-29
2022/08/09 04:53:06;;;;;;;3.80;2.80;;;;;;;;;;105642;1296;25394;-28
2022/08/09 04:55:32;;;;;;;4.10;3.10;;;;;;;;;;105578;1298;26532;-24
2022/08/09 04:57:57;;;;;;;6.80;2.50;;;;;;;;;;105606;1298;24424;-28
2022/08/09 05:00:23;;;;;;;4.90;2.70;;;;;;;;;;105602;1296;25272;-25
2022/08/09 05:02:49;;;;;;;6.80;2.40;;;;;;;;;;105627;1296;23795;-26
2022/08/09 05:05:14;;;;;;;6.80;2.90;;;;;;;;;;105640;1296;25225;-25
2022/08/09 05:07:40;;;;;;;6.40;2.30;;;;;;;;;;105637;1296;25222;-29
2022/08/09 05:10:06;;;;;;;2.80;2.00;;;;;;;;;;105528;1296;25204;-24
2022/08/09 05:12:31;;;;;;;3.10;2.30;;;;;;;;;;105565;1296;25197;-24
2022/08/09 05:14:56;;;;;;;8.30;2.60;;;;;;;;;;105551;1303;24356;-26
2022/08/09 05:17:22;;;;;;;3.00;2.50;;;;;;;;;;105596;1296;25234;-30
2022/08/09 05:19:49;;;;;;;6.50;3.20;;;;;;;;;;105549;1303;25206;-25
2022/08/09 05:22:15;;;;;;;2.20;1.60;;;;;;;;;;105574;1296;25243;-25
2022/08/09 05:24:41;;;;;;;4.40;2.40;;;;;;;;;;105470;1296;25197;-24
2022/08/09 05:27:06;;;;;;;2.40;1.60;;;;;;;;;;105383;1299;25234;-24
2022/08/09 05:29:32;;;;;;;5.20;2.30;;;;;;;;;;105540;1296;25324;-30
2022/08/09 05:31:59;;;;;;;3.60;1.90;;;;;;;;;;105613;1296;22526;-24
2022/08/09 05:34:25;;;;;;;4.20;1.80;;;;;;;;;;105594;1296;25247;-27
2022/08/09 05:36:51;;;;;;;3.10;1.80;;;;;;;;;;105601;1299;25346;-29
2022/08/09 05:39:16;;;;;;;2.70;1.60;;;;;;;;;;105553;1303;25196;-25
2022/08/09 05:41:42;;;;;;;1.20;1.00;;;;;;;;;;105599;1296;25196;-25
2022/08/09 05:44:08;;;;;;;2.50;1.70;;;;;;;;;;105404;1298;25234;-27
2022/08/09 05:46:34;;;;;;;1.40;1.10;;;;;;;;;;105522;1296;25285;-28
2022/08/09 05:48:59;;;;;;;1.80;1.30;;;;;;;;;;105521;1303;25274;-25
2022/08/09 05:51:25;;;;;;;7.60;1.70;;;;;;;;;;105181;1296;504792;-26
2022/08/09 05:53:50;;;;;;;2.90;1.90;;;;;;;;;;105405;1303;25241;-29
2022/08/09 05:56:16;;;;;;;5.80;1.80;;;;;;;;;;105520;1296;25253;-24
2022/08/09 05:58:42;;;;;;;5.80;2.50;;;;;;;;;;105565;1296;25197;-24
2022/08/09 06:01:08;;;;;;;4.10;2.10;;;;;;;;;;105575;1296;25263;-25
2022/08/09 06:03:34;;;;;;;3.00;1.80;;;;;;;;;;105601;1296;25235;-29
2022/08/09 06:06:00;;;;;;;4.10;1.60;;;;;;;;;;105543;1303;25277;-23
2022/08/09 06:08:25;;;;;;;6.50;1.70;;;;;;;;;;105562;1296;25385;-31
2022/08/09 06:10:51;;;;;;;3.50;2.20;;;;;;;;;;105601;1297;25299;-29
2022/08/09 06:13:17;;;;;;;2.80;1.70;;;;;;;;;;105558;1296;22510;-25
2022/08/09 06:15:43;;;;;;;6.60;2.10;;;;;;;;;;105558;1303;25196;-29
2022/08/09 06:18:09;;;;;;;2.20;1.50;;;;;;;;;;105601;1296;25182;-30
2022/08/09 06:20:34;;;;;;;5.40;1.80;;;;;;;;;;105639;1296;25243;-24
2022/08/09 06:23:00;;;;;;;2.00;1.40;;;;;;;;;;105631;1303;25235;-27
2022/08/09 06:25:25;;;;;;;3.60;1.80;;;;;;;;;;105626;1296;25287;-31
2022/08/09 06:27:51;;;;;;;4.20;2.50;;;;;;;;;;105539;1296;25351;-25
2022/08/09 06:30:16;;;;;;;2.80;1.90;;;;;;;;;;105554;1296;25201;-29
2022/08/09 06:32:42;;;;;;;5.60;1.40;;;;;;;;;;105548;1295;25178;-29
2022/08/09 06:35:08;;;;;;;2.50;1.80;;;;;;;;;;105571;1299;25290;-26
2022/08/09 06:37:33;;;;;;;2.40;1.90;;;;;;;;;;105576;1297;25238;-26
2022/08/09 06:39:59;;;;;;;4.10;1.90;;;;;;;;;;105568;1296;23728;-25
2022/08/09 06:42:24;;;;;;;4.60;2.00;;;;;;;;;;105547;1299;25251;-29
2022/08/09 06:44:50;;;;;;;5.70;2.60;;;;;;;;;;105605;1296;25213;-23
2022/08/09 06:47:16;;;;;;;2.70;1.50;;;;;;;;;;105582;1296;25205;-26
2022/08/09 06:49:41;;;;;;;4.30;1.60;;;;;;;;;;105545;1296;25321;-26
2022/08/09 06:52:07;;;;;;;6.10;1.40;;;;;;;;;;105579;1296;25234;-29
2022/08/09 06:54:32;;;;;;;1.80;0.80;;;;;;;;;;105404;1299;25389;-26
2022/08/09 06:56:57;;;;;;;1.20;0.70;;;;;;;;;;105562;1296;25299;-26
2022/08/09 06:59:23;;;;;;;1.70;1.10;;;;;;;;;;105568;1296;25420;-29
2022/08/09 07:01:49;;;;;;;4.30;1.20;;;;;;;;;;105540;1303;25277;-26
2022/08/09 07:04:14;;;;;;;3.40;1.00;;;;;;;;;;105437;1303;25280;-24
2022/08/09 07:06:40;;;;;;;5.50;1.40;;;;;;;;;;105558;1296;25234;-25
2022/08/09 07:09:05;;;;;;;3.30;1.00;;;;;;;;;;105605;1303;25237;-29
2022/08/09 07:11:30;;;;;;;5.30;0.90;;;;;;;;;;105607;1296;25360;-25
2022/08/09 07:13:56;;;;;;;8.80;1.30;;;;;;;;;;105570;1296;25535;-29
2022/08/09 07:16:21;;;;;;;2.70;0.80;;;;;;;;;;105567;1295;25196;-25
2022/08/09 07:18:47;;;;;;;1.90;0.70;;;;;;;;;;105521;1296;25339;-29
2022/08/09 07:21:12;;;;;;;3.10;0.90;;;;;;;;;;105582;1303;25190;-29
2022/08/09 07:23:40;;;;;;;4.80;0.80;;;;;;;;;;105366;1298;25273;-25
2022/08/09 07:26:06;;;;;;;2.30;0.70;;;;;;;;;;105461;1299;25194;-28
2022/08/09 07:28:31;;;;;;;2.70;0.70;;;;;;;;;;105584;1296;25225;-25
2022/08/09 07:30:57;;;;;;;9.00;0.70;;;;;;;;;;105588;1299;26695;-25
2022/08/09 07:33:22;;;;;;;1.60;0.50;;;;;;;;;;105634;1289;22622;-25
2022/08/09 07:35:48;;;;;;;2.30;0.80;;;;;;;;;;105641;1297;25197;-25
2022/08/09 07:38:13;;;;;;;0.90;0.50;;;;;;;;;;105630;1299;25234;-28
2022/08/09 07:40:39;;;;;;;0.60;0.40;;;;;;;;;;105542;1296;23656;-24
2022/08/09 07:43:04;;;;;;;2.50;0.70;;;;;;;;;;105364;1303;25279;-25
2022/08/09 07:45:30;;;;;;;2.10;1.00;;;;;;;;;;105553;1296;25289;-31
2022/08/09 07:47:56;;;;;;;0.90;0.50;;;;;;;;;;105642;1303;22986;-30
2022/08/09 07:50:22;;;;;;;1.20;0.50;;;;;;;;;;105648;1296;25249;-30
2022/08/09 07:52:48;;;;;;;1.90;0.30;;;;;;;;;;105658;1298;25327;-28
2022/08/09 07:55:14;;;;;;;5.10;0.90;;;;;;;;;;105642;1298;25251;-28
2022/08/09 07:57:40;;;;;;;1.00;0.60;;;;;;;;;;105512;1298;22509;-25
2022/08/09 08:00:06;;;;;;;1.90;0.50;;;;;;;;;;105672;1303;22506;-25
2022/08/09 08:02:31;;;;;;;0.30;0.30;;;;;;;;;;105594;1296;22443;-25
2022/08/09 08:04:57;;;;;;;2.00;0.70;;;;;;;;;;105499;1282;25234;-28
2022/08/09 08:07:22;;;;;;;1.80;0.40;;;;;;;;;;105633;1283;26480;-25
2022/08/09 08:09:48;;;;;;;2.90;0.60;;;;;;;;;;105367;1304;26650;-25
2022/08/09 08:12:14;;;;;;;2.90;0.90;;;;;;;;;;105167;1298;25481;-26
2022/08/09 08:14:40;;;;;;;2.80;0.60;;;;;;;;;;105551;1296;25196;-25
2022/08/09 08:17:06;;;;;;;1.20;0.60;;;;;;;;;;105413;1298;25122;-27
2022/08/09 08:19:31;;;;;;;0.70;0.40;;;;;;;;;;105498;1299;26582;-24
2022/08/09 08:21:57;;;;;;;3.10;0.40;;;;;;;;;;105603;1299;25343;-28
2022/08/09 08:24:22;;;;;;;0.80;0.30;;;;;;;;;;105645;1296;25235;-30
2022/08/09 08:26:48;;;;;;;0.80;0.40;;;;;;;;;;105551;1296;25237;-27
2022/08/09 08:29:16;;;;;;;2.50;0.60;;;;;;;;;;105606;1299;25189;-31
2022/08/09 08:31:42;;;;;;;4.60;0.50;;;;;;;;;;105643;1296;25309;-22
2022/08/09 08:34:07;;;;;;;1.50;0.50;;;;;;;;;;105531;1296;25194;-30
2022/08/09 08:36:33;;;;;;;0.90;0.40;;;;;;;;;;105558;1303;25290;-34
2022/08/09 08:38:58;;;;;;;0.30;0.30;;;;;;;;;;105565;1299;25234;-25
2022/08/09 08:41:24;;;;;;;1.70;0.70;;;;;;;;;;105568;1296;26537;-28
2022/08/09 08:43:49;;;;;;;1.10;0.40;;;;;;;;;;105635;1296;25196;-28
2022/08/09 08:46:15;;;;;;;17.00;0.80;;;;;;;;;;105620;1296;22520;-24
2022/08/09 08:48:41;;;;;;;2.60;0.60;;;;;;;;;;105514;1296;25303;-28
2022/08/09 08:51:06;;;;;;;1.30;0.50;;;;;;;;;;105591;1299;25243;-28
2022/08/09 08:53:32;;;;;;;2.20;0.30;;;;;;;;;;104914;1297;1003778;-28
2022/08/09 08:55:57;;;;;;;9.50;0.30;;;;;;;;;;105534;1298;25233;-27
2022/08/09 08:58:23;;;;;;;1.30;0.60;;;;;;;;;;105578;1296;25350;-31
2022/08/09 09:00:49;;;;;;;1.80;0.30;;;;;;;;;;105541;1303;25240;-29
2022/08/09 09:03:14;;;;;;;1.50;0.50;;;;;;;;;;105640;1296;25231;-25
2022/08/09 09:05:40;;;;;;;2.80;0.40;;;;;;;;;;105538;1295;25234;-29
2022/08/09 09:08:06;;;;;;;2.10;0.30;;;;;;;;;;105483;1298;25381;-29
2022/08/09 09:10:31;;;;;;;10.50;0.50;;;;;;;;;;105354;1283;25222;-25
2022/08/09 09:12:57;;;;;;;1.50;0.50;;;;;;;;;;105618;1303;25250;-29
2022/08/09 09:15:22;;;;;;;0.60;0.40;;;;;;;;;;105657;1296;25250;-25
2022/08/09 09:17:48;;;;;;;0.20;0.20;;;;;;;;;;105627;1296;25274;-25
2022/08/09 09:20:13;;;;;;;1.50;0.30;;;;;;;;;;105530;1296;25318;-28
2022/08/09 09:22:42;;;;;;;1.00;0.40;;;;;;;;;;105513;1296;25223;-28
2022/08/09 09:25:08;;;;;;;0.60;0.30;;;;;;;;;;105603;1282;25308;-25
2022/08/09 09:27:33;;;;;;;0.40;0.40;;;;;;;;;;105537;1296;25229;-28
2022/08/09 09:30:07;;;;;;;0.20;0.20;;;;;;;;;;105643;1296;25228;-25
2022/08/09 09:32:33;;;;;;;1.30;0.10;;;;;;;;;;105551;1299;25284;-26
2022/08/09 09:35:09;;;;;;;0.50;0.30;;;;;;;;;;105367;1298;25302;-28
2022/08/09 09:37:34;;;;;;;0.50;0.30;;;;;;;;;;105587;1296;25206;-24
2022/08/09 09:40:00;;;;;;;0.40;0.30;;;;;;;;;;105551;1292;26582;-24
2022/08/09 09:42:27;;;;;;;0.70;0.40;;;;;;;;;;105554;1296;25266;-28
2022/08/09 09:44:57;;;;;;;0.50;0.20;;;;;;;;;;105601;1295;25246;-25
2022/08/09 09:47:22;;;;;;;1.40;0.50;;;;;;;;;;105641;1296;25197;-23
2022/08/09 09:49:49;;;;;;;1.40;0.20;;;;;;;;;;105558;1295;26474;-27
2022/08/09 09:52:15;;;;;;;1.60;0.40;;;;;;;;;;105631;1296;25211;-26
2022/08/09 09:54:42;;;;;;;0.80;0.50;;;;;;;;;;105580;1296;22688;-28
2022/08/09 09:57:11;;;;;;;3.80;0.50;;;;;;;;;;105564;1299;25265;-25
2022/08/09 09:59:37;;;;;;;1.10;0.50;;;;;;;;;;105616;1303;25187;-28
2022/08/09 10:02:02;;;;;;;3.50;0.30;;;;;;;;;;105661;1296;22632;-25
2022/08/09 10:04:27;;;;;;;1.30;0.60;;;;;;;;;;105525;1296;25178;-25
2022/08/09 10:06:53;;;;;;;3.70;0.90;;;;;;;;;;105526;1296;25236;-25
2022/08/09 10:09:18;;;;;;;0.40;0.30;;;;;;;;;;105340;1304;25369;-24
2022/08/09 10:11:44;;;;;;;2.70;0.40;;;;;;;;;;105576;1289;25197;-24
2022/08/09 10:14:13;;;;;;;1.60;0.60;;;;;;;;;;105615;1296;25245;-25
2022/08/09 10:16:38;;;;;;;2.20;0.90;;;;;;;;;;105504;1295;25238;-24
2022/08/09 10:19:06;;;;;;;2.10;0.40;;;;;;;;;;105573;1303;25263;-25
2022/08/09 10:21:31;;;;;;;1.40;0.50;;;;;;;;;;105547;1296;25237;-29
2022/08/09 10:24:00;;;;;;;1.70;0.50;;;;;;;;;;105567;1296;25226;-29
2022/08/09 10:26:25;;;;;;;1.40;0.50;;;;;;;;;;105607;1298;25197;-28
2022/08/09 10:28:51;;;;;;;1.20;0.20;;;;;;;;;;105435;1303;25215;-28
2022/08/09 10:31:16;;;;;;;0.30;0.30;;;;;;;;;;105624;1303;25173;-24
2022/08/09 10:33:42;;;;;;;1.10;0.40;;;;;;;;;;105509;1296;25210;-30
2022/08/09 10:36:09;;;;;;;0.20;0.20;;;;;;;;;;105526;1296;25187;-28
2022/08/09 10:38:34;;;;;;;1.60;0.60;;;;;;;;;;105585;1298;25238;-24
2022/08/09 10:41:00;;;;;;;0.40;0.40;;;;;;;;;;105538;1299;25479;-29
2022/08/09 10:43:26;;;;;;;1.90;0.40;;;;;;;;;;105613;1298;25226;-25
2022/08/09 10:45:51;;;;;;;1.50;0.90;;;;;;;;;;105574;1303;25203;-24
2022/08/09 10:48:22;;;;;;;11.40;0.70;;;;;;;;;;105439;1303;22703;-28
2022/08/09 10:53:19;;;;;;;1.70;0.70;;;;;;;;;;105554;1298;25324;-24
2022/08/09 10:55:45;;;;;;;3.80;0.60;;;;;;;;;;105617;1298;25347;-24
2022/08/09 10:58:27;;;;;;;4.90;0.50;;;;;;;;;;105573;1296;25276;-27
2022/08/09 11:00:53;;;;;;;;;;;;;;;;;;105608;1283;25265;-28
2022/08/09 11:03:20;;;;;;;0.50;0.30;;;;;;;;;;105593;1296;25235;-26
2022/08/09 11:05:49;;;;;;;1.30;0.60;;;;;;;;;;105424;1303;25229;-26
2022/08/09 11:08:18;;;;;;;4.40;0.70;;;;;;;;;;105657;1296;25178;-26
2022/08/09 11:10:53;;;;;;;1.20;0.50;;;;;;;;;;105554;1296;25206;-30
2022/08/09 11:13:19;;;;;;;0.20;0.20;;;;;;;;;;105562;1303;22442;-26
2022/08/09 11:15:45;;;;;;;8.80;0.70;;;;;;;;;;105598;1303;25279;-28
2022/08/09 11:18:17;;;;;;;5.30;0.60;;;;;;;;;;105681;1296;25235;-24
2022/08/09 11:20:44;;;;;;;;;;;;;;;;;;105538;1296;25360;-25
2022/08/09 11:23:10;;;;;;;1.30;0.30;;;;;;;;;;105589;1303;22529;-25
2022/08/09 11:25:37;;;;;;;5.60;0.80;;;;;;;;;;105649;1295;24577;-28
2022/08/09 11:28:14;;;;;;;1.10;0.70;;;;;;;;;;105553;1303;25237;-30
2022/08/09 11:30:40;;;;;;;3.40;1.00;;;;;;;;;;105566;1296;25239;-25
2022/08/09 11:33:09;;;;;;;0.30;0.30;;;;;;;;;;105608;1303;25344;-30
2022/08/09 11:35:36;;;;;;;0.80;0.40;;;;;;;;;;105626;1298;25215;-23
2022/08/09 11:38:05;;;;;;;2.30;0.40;;;;;;;;;;105679;1296;25244;-26
2022/08/09 11:40:31;;;;;;;1.70;0.50;;;;;;;;;;105557;1299;25197;-28
2022/08/09 11:42:58;;;;;;;2.10;0.50;;;;;;;;;;104813;1296;1003543;-25
2022/08/09 11:45:25;;;;;;;1.60;0.50;;;;;;;;;;105417;1304;25403;-29
2022/08/09 11:47:51;;;;;;;0.60;0.50;;;;;;;;;;105595;1296;25152;-25
2022/08/09 11:50:17;;;;;;;1.10;0.40;;;;;;;;;;105554;1289;25276;-24
2022/08/09 11:52:46;;;;;;;1.00;0.50;;;;;;;;;;105553;1296;25231;-29
2022/08/09 11:55:15;;;;;;;0.70;0.30;;;;;;;;;;105595;1298;25197;-30
2022/08/09 11:57:40;;;;;;;1.20;0.50;;;;;;;;;;105614;1299;25247;-28
2022/08/09 12:00:09;;;;;;;8.40;1.10;;;;;;;;;;105612;1297;25248;-30
2022/08/09 12:02:37;;;;;;;1.20;0.50;;;;;;;;;;105632;1298;25203;-24
2022/08/09 12:05:03;;;;;;;0.90;0.30;;;;;;;;;;105554;1299;25235;-25
2022/08/09 12:07:29;;;;;;;1.60;0.60;;;;;;;;;;105555;1298;26462;-23
2022/08/09 12:09:58;;;;;;;2.20;0.50;;;;;;;;;;105545;1296;25194;-28
2022/08/09 12:12:23;;;;;;;3.00;1.80;;;;;;;;;;105619;1299;26508;-27
2022/08/09 12:14:49;;;;;;;10.30;2.40;;;;;;;;;;105492;1303;23601;-28
2022/08/09 12:17:14;;;;;;;0.50;0.40;;;;;;;;;;105454;1298;25197;-31
2022/08/09 12:19:40;;;;;;;4.10;0.50;;;;;;;;;;105590;1297;26473;-27
2022/08/09 12:22:06;;;;;;;0.80;0.30;;;;;;;;;;105539;1296;25178;-29
2022/08/09 12:24:32;;;;;;;1.00;0.50;;;;;;;;;;105617;1299;25244;-29
2022/08/09 12:26:58;;;;;;;2.80;0.40;;;;;;;;;;105590;1296;25228;-25
2022/08/09 12:29:25;;;;;;;2.60;0.70;;;;;;;;;;105646;1303;25206;-25
2022/08/09 12:31:54;;;;;;;11.10;0.70;;;;;;;;;;105523;1303;25207;-28
2022/08/09 12:34:30;;;;;;;1.10;0.20;;;;;;;;;;105540;1299;25237;-29
2022/08/09 12:36:55;;;;;;;0.90;0.30;;;;;;;;;;105519;1299;25349;-25
2022/08/09 12:39:21;;;;;;;1.40;0.30;;;;;;;;;;105557;1296;25338;-31
2022/08/09 12:41:46;;;;;;;0.90;0.50;;;;;;;;;;105587;1299;25306;-29
2022/08/09 12:44:12;;;;;;;1.10;0.40;;;;;;;;;;105513;1296;25197;-24
2022/08/09 12:46:39;;;;;;;0.50;0.40;;;;;;;;;;105626;1296;25237;-25
2022/08/09 12:49:06;;;;;;;1.80;0.80;;;;;;;;;;105541;1296;25225;-30
2022/08/09 12:51:31;;;;;;;1.10;0.70;;;;;;;;;;105559;1303;25197;-23
2022/08/09 12:53:58;;;;;;;0.80;0.50;;;;;;;;;;105501;1299;26784;-29
2022/08/09 12:56:24;;;;;;;0.80;0.30;;;;;;;;;;105627;1297;26576;-25
2022/08/09 12:58:53;;;;;;;1.60;0.50;;;;;;;;;;105530;1303;25219;-24
2022/08/09 13:01:19;;;;;;;3.50;0.40;;;;;;;;;;105530;1296;25334;-23
2022/08/09 13:03:53;;;;;;;10.10;0.50;;;;;;;;;;105475;1303;25194;-25
2022/08/09 13:06:22;;;;;;;2.00;0.50;;;;;;;;;;105517;1297;25234;-25
2022/08/09 13:08:51;;;;;;;5.50;0.50;;;;;;;;;;104913;1296;1003619;-24
2022/08/09 13:11:17;;;;;;;3.40;0.20;;;;;;;;;;105592;1299;25319;-24
2022/08/09 13:13:42;;;;;;;4.50;0.90;;;;;;;;;;105549;1296;22507;-26
2022/08/09 13:16:08;;;;;;;1.70;1.10;;;;;;;;;;105543;1299;25235;-24
2022/08/09 13:18:37;;;;;;;9.50;0.40;;;;;;;;;;105624;1296;25346;-24
2022/08/09 13:21:03;;;;;;;17.60;11.70;;;;;;;;;;105536;1299;25283;-24
2022/08/09 13:23:32;;;;;;;22.30;9.90;;;;;;;;;;105595;1298;25238;-27
2022/08/09 13:25:57;;;;;;;5.40;1.40;;;;;;;;;;105621;1296;22612;-31
2022/08/09 13:28:23;;;;;;;3.50;0.80;;;;;;;;;;105618;1303;25197;-24
2022/08/09 13:31:01;;;;;;;1.90;0.70;;;;;;;;;;105583;1296;25320;-28
2022/08/09 13:33:27;;;;;;;2.90;0.70;;;;;;;;;;105639;1299;25206;-28
2022/08/09 13:35:52;;;;;;;10.20;0.60;;;;;;;;;;105584;1296;25280;-23
2022/08/09 13:38:18;;;;;;;5.80;1.30;;;;;;;;;;105347;1299;25335;-28
2022/08/09 13:40:43;;;;;;;11.00;1.30;;;;;;;;;;105604;1296;26475;-24
2022/08/09 13:43:09;;;;;;;2.10;0.80;;;;;;;;;;105587;1296;25237;-25
2022/08/09 13:45:34;;;;;;;2.50;2.10;;;;;;;;;;105566;1303;25231;-28
2022/08/09 13:47:59;;;;;;;6.30;3.00;;;;;;;;;;105600;1296;25342;-25
2022/08/09 13:50:26;;;;;;;22.50;12.40;;;;;;;;;;105567;1303;22828;-26
2022/08/09 13:52:52;;;;;;;12.40;3.70;;;;;;;;;;104645;1303;583111;-26
2022/08/09 13:55:17;;;;;;;2.40;0.60;;;;;;;;;;105539;1303;22497;-24
2022/08/09 13:57:46;;;;;;;11.00;4.10;;;;;;;;;;105552;1296;25305;-24
2022/08/09 14:00:13;;;;;;;5.20;1.60;;;;;;;;;;105669;1296;23041;-28
2022/08/09 14:02:40;;;;;;;1.10;0.70;;;;;;;;;;105513;1296;25205;-28
2022/08/09 14:05:06;;;;;;;4.00;0.60;;;;;;;;;;105566;1297;25321;-25
2022/08/09 14:07:31;;;;;;;2.70;0.50;;;;;;;;;;105612;1299;25297;-25
2022/08/09 14:09:56;;;;;;;6.40;3.60;;;;;;;;;;105613;1296;25235;-25
2022/08/09 14:12:22;;;;;;;5.50;0.70;;;;;;;;;;105547;1296;25238;-25
2022/08/09 14:14:47;;;;;;;2.40;0.80;;;;;;;;;;105563;1296;25261;-25
2022/08/09 14:17:13;;;;;;;11.50;0.90;;;;;;;;;;105392;1303;25261;-29
2022/08/09 14:19:38;;;;;;;2.10;0.60;;;;;;;;;;105616;1296;27524;-29
2022/08/09 14:22:04;;;;;;;2.90;0.80;;;;;;;;;;105432;1299;25238;-24
2022/08/09 14:24:30;;;;;;;3.00;0.40;;;;;;;;;;105611;1303;25231;-26